MPTOMPDA

Guest
Details From MPTO - Tocumen Intl
To MPDA - ENRIQUE MALEK INTL
Flight Number -
Tags generated
Created
Modified
Stats Distance 186 nm / 345 km
Max Altitude 18,300 ft / 5,578 m
Waypoints 5
Social Downloads 1
Likes 0
Share VATSIM

Download

Looking for another format? Having issues loading an existing format? Contact us
Advertisement - Login to hide

Notes

Basic altitude profile: - Ascent Rate: 2500ft/min - Ascent Speed: 250kts - Cruise Altitude: 35000ft - Cruise Speed: 420kts - Descent Rate: 1500ft/min - Descent Speed: 250kts Options: - Use NATs: yes - Use PACOTS: yes - Use low airways: yes - Use high airways: yes

Route

MPTO RONAM A502 ASIKA MPDA

ID Type Via Altitude Latitude Longitude Leg Dist Tot Dist Heading (true) Name
O MPTO APT - 0 ft / 0 m 9.07136˚ -79.38346˚ - 0 nm - Tocumen Intl
RONAM FIX - 18,300 ft / 5,578 m 8.58633˚ -81.00317˚ 100 nm 100 nm 253° / 253° -
EGOSO FIX A502 (AWY-LO) 6,300 ft / 1,920 m 8.45633˚ -81.94317˚ 56 nm 156 nm 262° / 262° -
ASIKA FIX A502 (AWY-LO) 2,500 ft / 762 m 8.41467˚ -82.23817˚ 17 nm 174 nm 262° / 262° -
O MPDA APT - 0 ft / 0 m 8.39100˚ -82.43498˚ 11 nm 186 nm 263° / 263° ENRIQUE MALEK INTL

Altitude Profile

Advertisement - Login to hide

Weather


0- 5 10 15 20 25 30 35+ Temperature / ° C

Clouds and Precipitation
Forecast for 2017-12-17 18:00 UTC. Updated an hour ago

Ground ~20,000 ft ~40,000 ft Winds

MPTO

Details ICAO MPTO (PTY)
Name Tocumen Intl
Region Panama
Timezone America/Panama (UTC-5.0)
Stats Elevation 135 ft / 41 m (AMSL)
Location 9.071364° -79.383458°
Runways 2
Magnetic Variation 4.532° W

METAR

MPTO 171600Z 04012KT 9999 FEW018 32/23 Q1010 NOSIG

Decode

TAF

Not found

Departure Runways

ID Width Length Bearing (true) Bearing (mag) Surface Threshold Offset Overrun Length
03L 200 ft / 61 m 8,798 ft / 2,682 m 30.67° 35.20° Asphalt 0 ft / 0 m 0 ft / 0 m
03R 148 ft / 45 m 10,008 ft / 3,051 m 29.33° 33.86° Concrete 0 ft / 0 m 198 ft / 60 m
21L 148 ft / 45 m 10,008 ft / 3,051 m 209.33° 213.86° Concrete 0 ft / 0 m 198 ft / 60 m
21R 200 ft / 61 m 8,798 ft / 2,682 m 210.67° 215.20° Asphalt 0 ft / 0 m 0 ft / 0 m

MPDA

Details ICAO MPDA (DAV)
Name ENRIQUE MALEK INTL
Region Panama
Timezone America/Panama (UTC-5.0)
Stats Elevation 89 ft / 27 m (AMSL)
Location 8.391001° -82.434978°
Runways 1
Magnetic Variation 2.506° W

METAR

MPDA 171600Z 03012KT 320V080 CAVOK 32/16 Q1010

Decode

TAF

Not found

Destination Runways

ID Width Length Bearing (true) Bearing (mag) Surface Threshold Offset Overrun Length
04 148 ft / 45 m 6,923 ft / 2,110 m 37.70° 40.21° Asphalt 0 ft / 0 m 197 ft / 60 m
22 148 ft / 45 m 6,923 ft / 2,110 m 217.71° 220.22° Asphalt 0 ft / 0 m 0 ft / 0 m

Popular Alternatives